createdAt,value
2018-04-29T00:02:33.084Z,1004.63
2018-04-29T00:07:27.896Z,1004.64
2018-04-29T00:12:25.018Z,1004.66
2018-04-29T00:17:21.582Z,1004.62
2018-04-29T00:22:16.905Z,1004.52
2018-04-29T00:27:12.708Z,1004.56
2018-04-29T00:32:09.397Z,1004.69
2018-04-29T00:37:04.722Z,1004.62
2018-04-29T00:42:01.140Z,1004.64
2018-04-29T00:47:00.596Z,1004.65
2018-04-29T00:51:56.012Z,1004.49
2018-04-29T00:56:52.330Z,1004.49
2018-04-29T01:01:48.396Z,1004.45
2018-04-29T01:06:47.819Z,1004.48
2018-04-29T01:11:46.554Z,1004.43
2018-04-29T01:16:45.561Z,1004.43
2018-04-29T01:21:44.169Z,1004.42
2018-04-29T01:26:43.536Z,1004.40
2018-04-29T01:31:43.251Z,1004.36
2018-04-29T01:36:37.990Z,1004.33
2018-04-29T01:41:34.749Z,1004.50
2018-04-29T01:46:31.023Z,1004.50
2018-04-29T01:51:26.795Z,1004.49
2018-04-29T01:56:22.596Z,1004.45
2018-04-29T02:01:18.349Z,1004.40
2018-04-29T02:06:15.297Z,1004.23
2018-04-29T02:11:11.725Z,1004.21
2018-04-29T02:16:10.999Z,1004.23
2018-04-29T02:21:07.209Z,1004.30
2018-04-29T02:26:02.478Z,1004.32
2018-04-29T02:30:58.263Z,1004.29
2018-04-29T02:35:58.868Z,1004.22
2018-04-29T02:40:53.597Z,1004.05
2018-04-29T02:45:49.495Z,1003.92
2018-04-29T02:50:45.240Z,1003.98
2018-04-29T02:55:40.951Z,1003.98
2018-04-29T03:00:40.153Z,1003.87
2018-04-29T03:05:36.090Z,1003.77
2018-04-29T03:10:31.469Z,1003.72
2018-04-29T03:15:28.174Z,1003.78
2018-04-29T03:20:24.004Z,1003.73
2018-04-29T03:25:20.371Z,1003.79
2018-04-29T03:30:16.291Z,1003.69
2018-04-29T03:35:15.566Z,1003.76
2018-04-29T03:40:10.355Z,1003.88
2018-04-29T03:45:10.153Z,1003.89
2018-04-29T03:50:08.984Z,1003.87
2018-04-29T03:55:03.781Z,1003.87
2018-04-29T03:59:59.766Z,1003.81
2018-04-29T04:04:56.515Z,1003.73
2018-04-29T04:09:52.001Z,1003.65
2018-04-29T04:14:48.534Z,1003.94
2018-04-29T04:19:44.139Z,1003.83
2018-04-29T04:24:40.049Z,1003.71
2018-04-29T04:29:40.221Z,1003.62
2018-04-29T04:34:36.773Z,1003.67
2018-04-29T04:39:32.566Z,1003.71
2018-04-29T04:44:32.385Z,1003.70
2018-04-29T04:49:28.542Z,1003.77
2018-04-29T04:54:24.034Z,1003.87
2018-04-29T04:59:20.740Z,1003.91
2018-04-29T05:04:20.210Z,1003.87
2018-04-29T05:09:20.333Z,1003.89
2018-04-29T05:14:16.113Z,1003.77
2018-04-29T05:19:11.731Z,1003.67
2018-04-29T05:24:07.658Z,1003.64
2018-04-29T05:29:03.585Z,1003.71
2018-04-29T05:34:00.543Z,1003.74
2018-04-29T05:38:56.587Z,1003.71
2018-04-29T05:43:52.652Z,1003.56
2018-04-29T05:48:49.627Z,1003.49
2018-04-29T05:53:45.537Z,1003.60
2018-04-29T05:58:42.076Z,1003.71
2018-04-29T06:03:39.706Z,1003.69
2018-04-29T06:08:39.933Z,1003.62
2018-04-29T06:13:36.306Z,1003.67
2018-04-29T06:18:31.986Z,1003.69
2018-04-29T06:23:28.292Z,1003.72
2018-04-29T06:28:24.276Z,1003.86
2018-04-29T06:33:20.320Z,1003.64
2018-04-29T06:38:16.387Z,1003.56
2018-04-29T06:43:13.254Z,1003.46
2018-04-29T06:48:08.887Z,1003.33
2018-04-29T06:53:05.097Z,1003.36
2018-04-29T06:58:00.790Z,1003.32
2018-04-29T07:02:56.842Z,1003.18
2018-04-29T07:07:53.765Z,1003.05
2018-04-29T07:12:49.601Z,1003.01
2018-04-29T07:17:50.223Z,1003.01
2018-04-29T07:22:45.199Z,1003.13
2018-04-29T07:27:42.191Z,1003.06
2018-04-29T07:32:38.483Z,1003.17
2018-04-29T07:37:34.565Z,1003.06
2018-04-29T07:42:30.661Z,1002.96
2018-04-29T07:47:26.645Z,1003.00
2018-04-29T07:52:22.448Z,1003.22
2018-04-29T07:57:22.507Z,1003.20
2018-04-29T08:02:17.216Z,1003.31
2018-04-29T08:07:13.373Z,1003.25
2018-04-29T08:12:09.330Z,1003.38
2018-04-29T08:17:04.733Z,1003.33
2018-04-29T08:22:00.417Z,1003.33
2018-04-29T08:26:56.163Z,1003.36
2018-04-29T08:31:51.848Z,1003.43
2018-04-29T08:36:47.717Z,1003.34
2018-04-29T08:41:47.480Z,1003.08
2018-04-29T08:46:42.887Z,1003.18
2018-04-29T08:51:38.617Z,1002.93
2018-04-29T08:56:38.069Z,1003.11
2018-04-29T09:01:39.424Z,1003.09
2018-04-29T09:06:34.810Z,1003.15
2018-04-29T09:11:30.698Z,1002.74
2018-04-29T09:16:27.251Z,1002.77
2018-04-29T09:21:24.515Z,1002.68
2018-04-29T09:26:19.915Z,1002.72
2018-04-29T09:31:15.913Z,1002.74
2018-04-29T09:36:12.391Z,1002.80
2018-04-29T09:41:08.245Z,1002.98
2018-04-29T09:46:05.386Z,1002.87
2018-04-29T09:51:00.764Z,1002.92
2018-04-29T09:55:57.368Z,1002.93
2018-04-29T10:00:56.657Z,1001.92
2018-04-29T10:05:52.348Z,1002.41
2018-04-29T10:10:48.450Z,1002.66
2018-04-29T10:15:44.590Z,1002.65
2018-04-29T10:20:45.365Z,1002.58
2018-04-29T10:25:45.036Z,1002.40
2018-04-29T10:30:41.634Z,1002.39
2018-04-29T10:35:41.718Z,1002.43
2018-04-29T10:40:37.169Z,1002.25
2018-04-29T10:45:34.873Z,1002.21
2018-04-29T10:50:33.230Z,1002.20
2018-04-29T10:55:34.187Z,1002.01
2018-04-29T11:00:27.551Z,1001.86
2018-04-29T11:05:23.647Z,1001.83
2018-04-29T11:10:21.763Z,1001.55
2018-04-29T11:15:19.020Z,1001.49
2018-04-29T11:20:16.010Z,1001.26
2018-04-29T11:25:11.451Z,1001.42
2018-04-29T11:30:07.956Z,1001.34
2018-04-29T11:35:05.177Z,1001.07
2018-04-29T11:40:02.097Z,1001.00
2018-04-29T11:45:00.531Z,1000.76
2018-04-29T11:49:55.547Z,1000.67
2018-04-29T11:54:51.931Z,1000.56
2018-04-29T11:59:51.369Z,1000.45
2018-04-29T12:04:46.653Z,1000.51
2018-04-29T12:09:45.342Z,1000.59
2018-04-29T12:14:40.738Z,1000.63
2018-04-29T12:19:35.856Z,1000.51
2018-04-29T12:24:34.709Z,1000.37
2018-04-29T12:29:30.495Z,1000.40
2018-04-29T12:34:26.277Z,1000.27
2018-04-29T12:39:26.578Z,1000.24
2018-04-29T12:44:21.637Z,1000.15
2018-04-29T12:49:17.615Z,1000.08
2018-04-29T12:54:13.557Z,999.97
2018-04-29T12:59:14.061Z,1000.08
2018-04-29T13:04:09.257Z,1000.06
2018-04-29T13:09:06.479Z,1000.04
2018-04-29T13:14:02.391Z,999.86
2018-04-29T13:18:58.174Z,999.79
2018-04-29T13:23:53.775Z,999.59
2018-04-29T13:28:54.055Z,999.49
2018-04-29T13:33:52.836Z,999.47
2018-04-29T13:38:47.551Z,999.39
2018-04-29T13:43:47.138Z,999.30
2018-04-29T13:48:42.425Z,999.23
2018-04-29T13:53:38.344Z,999.12
2018-04-29T13:58:38.046Z,999.13
2018-04-29T14:03:33.777Z,999.11
2018-04-29T14:08:28.894Z,999.03
2018-04-29T14:13:24.779Z,998.97
2018-04-29T14:18:20.632Z,998.86
2018-04-29T14:23:16.636Z,998.79
2018-04-29T14:28:12.875Z,998.71
2018-04-29T14:33:10.017Z,998.50
2018-04-29T14:38:05.958Z,998.53
2018-04-29T14:43:01.505Z,998.48
2018-04-29T14:47:57.404Z,998.42
2018-04-29T14:52:53.356Z,998.43
2018-04-29T14:57:49.309Z,998.30
2018-04-29T15:02:45.486Z,998.46
2018-04-29T15:07:41.431Z,998.33
2018-04-29T15:12:37.153Z,998.26
2018-04-29T15:17:36.973Z,998.25
2018-04-29T15:22:32.104Z,998.05
2018-04-29T15:27:29.019Z,997.94
2018-04-29T15:32:24.445Z,998.06
2018-04-29T15:37:23.992Z,998.10
2018-04-29T15:42:19.155Z,997.86
2018-04-29T15:47:14.978Z,997.72
2018-04-29T15:52:14.929Z,997.89
2018-04-29T15:57:09.996Z,998.10
2018-04-29T16:02:09.788Z,997.94
2018-04-29T16:07:05.756Z,997.87
2018-04-29T16:12:02.690Z,997.81
2018-04-29T16:16:59.486Z,997.78
2018-04-29T16:21:58.614Z,997.55
2018-04-29T16:26:53.632Z,997.59
2018-04-29T16:31:53.789Z,997.46
2018-04-29T16:36:53.329Z,997.32
2018-04-29T16:41:48.402Z,997.25
2018-04-29T16:46:47.947Z,997.26
2018-04-29T16:51:46.917Z,997.30
2018-04-29T16:56:42.123Z,997.17
2018-04-29T17:01:38.030Z,997.14
2018-04-29T17:06:37.770Z,997.03
2018-04-29T17:11:36.865Z,997.01
2018-04-29T17:16:31.863Z,996.98
2018-04-29T17:21:31.378Z,996.82
2018-04-29T17:26:26.917Z,996.82
2018-04-29T17:31:23.651Z,996.97
2018-04-29T17:36:22.938Z,996.96
2018-04-29T17:41:18.238Z,996.96
2018-04-29T17:46:16.081Z,997.01
2018-04-29T17:51:11.547Z,996.96
2018-04-29T17:56:07.410Z,996.87
2018-04-29T18:01:04.238Z,996.99
2018-04-29T18:06:03.611Z,996.84
2018-04-29T18:10:59.585Z,996.78
2018-04-29T18:15:54.934Z,996.80
2018-04-29T18:20:50.535Z,996.74
2018-04-29T18:25:46.349Z,996.68
2018-04-29T18:30:42.449Z,996.64
2018-04-29T18:35:38.418Z,996.61
2018-04-29T18:40:35.227Z,996.49
2018-04-29T18:45:34.848Z,996.42
2018-04-29T18:50:34.081Z,996.39
2018-04-29T18:55:32.676Z,996.33
2018-04-29T19:00:31.557Z,996.24
2018-04-29T19:05:26.473Z,996.18
2018-04-29T19:10:27.177Z,996.18
2018-04-29T19:15:26.032Z,996.10
2018-04-29T19:20:21.284Z,996.14
2018-04-29T19:25:22.015Z,996.10
2018-04-29T19:30:17.544Z,996.10
2018-04-29T19:35:14.459Z,995.96
2018-04-29T19:40:10.372Z,995.91
2018-04-29T19:45:11.099Z,995.92
2018-04-29T19:50:09.541Z,995.69
2018-04-29T19:55:08.528Z,995.80
2018-04-29T20:00:04.425Z,995.63
2018-04-29T20:05:03.452Z,995.49
2018-04-29T20:10:02.308Z,995.43
2018-04-29T20:15:02.038Z,995.22
2018-04-29T20:19:57.912Z,995.09
2018-04-29T20:24:54.378Z,994.83
2018-04-29T20:29:54.835Z,994.77
2018-04-29T20:34:53.427Z,994.52
2018-04-29T20:39:52.389Z,994.34
2018-04-29T20:44:51.356Z,994.09
2018-04-29T20:49:46.184Z,994.00
2018-04-29T20:54:45.804Z,993.81
2018-04-29T20:59:45.010Z,993.76
2018-04-29T21:04:40.032Z,993.74
2018-04-29T21:09:35.627Z,993.61
2018-04-29T21:14:33.229Z,993.58
2018-04-29T21:19:28.857Z,993.62
2018-04-29T21:24:28.463Z,993.61
2018-04-29T21:29:23.688Z,993.41
2018-04-29T21:34:24.745Z,993.39
2018-04-29T21:39:23.467Z,993.23
2018-04-29T21:44:22.249Z,993.22
2018-04-29T21:49:20.975Z,993.14
2018-04-29T21:54:15.991Z,993.06
2018-04-29T21:59:15.647Z,993.06
2018-04-29T22:04:11.706Z,992.94
2018-04-29T22:09:07.361Z,992.83
2018-04-29T22:14:03.182Z,992.84
2018-04-29T22:18:59.846Z,992.92
2018-04-29T22:23:57.208Z,992.91
2018-04-29T22:28:53.393Z,992.77
2018-04-29T22:33:48.686Z,992.73
2018-04-29T22:38:44.686Z,992.66
2018-04-29T22:43:40.525Z,992.60
2018-04-29T22:48:36.167Z,992.40
2018-04-29T22:53:35.732Z,992.26
2018-04-29T22:58:30.723Z,992.12
2018-04-29T23:03:30.114Z,991.83
2018-04-29T23:08:26.277Z,991.67
2018-04-29T23:13:26.203Z,991.54
2018-04-29T23:18:21.122Z,991.40
2018-04-29T23:23:17.804Z,991.25
2018-04-29T23:28:13.631Z,991.16
2018-04-29T23:33:09.487Z,990.93
2018-04-29T23:38:04.806Z,990.92
2018-04-29T23:43:04.740Z,990.66
2018-04-29T23:48:03.984Z,990.48
2018-04-29T23:53:00.129Z,990.32
2018-04-29T23:57:56.110Z,990.27
